createdAt,value
2019-01-24T00:01:51.378Z,-3.30
2019-01-24T00:11:54.992Z,-3.30
2019-01-24T00:21:59.047Z,-3.40
2019-01-24T00:32:02.698Z,-3.50
2019-01-24T00:42:06.354Z,-3.40
2019-01-24T00:52:09.983Z,-3.30
2019-01-24T01:02:14.344Z,-3.30
2019-01-24T01:12:17.973Z,-3.40
2019-01-24T01:22:21.606Z,-3.60
2019-01-24T01:32:25.231Z,-3.50
2019-01-24T01:42:29.087Z,-3.40
2019-01-24T01:52:32.666Z,-3.30
2019-01-24T02:02:36.275Z,-3.10
2019-01-24T02:12:39.897Z,-3.10
2019-01-24T02:22:43.553Z,-3.10
2019-01-24T02:32:47.957Z,-3.10
2019-01-24T02:42:51.558Z,-3.10
2019-01-24T02:52:55.171Z,-3.10
2019-01-24T03:02:58.810Z,-3.00
2019-01-24T03:13:02.427Z,-2.90
2019-01-24T03:23:06.048Z,-3.00
2019-01-24T03:33:09.633Z,-2.90
2019-01-24T03:43:15.550Z,-3.10
2019-01-24T03:53:19.132Z,-3.00
2019-01-24T04:03:22.732Z,-3.00
2019-01-24T04:13:27.366Z,-3.10
2019-01-24T04:23:31.559Z,-3.20
2019-01-24T04:33:35.195Z,-3.00
2019-01-24T04:43:38.826Z,-3.00
2019-01-24T04:53:42.427Z,-2.90
2019-01-24T05:03:46.023Z,-2.70
2019-01-24T05:13:49.654Z,-2.50
2019-01-24T05:23:53.267Z,-2.60
2019-01-24T05:33:56.863Z,-2.50
2019-01-24T05:44:00.452Z,-2.40
2019-01-24T05:54:04.052Z,-2.30
2019-01-24T06:04:09.743Z,-2.10
2019-01-24T06:14:14.415Z,-2.00
2019-01-24T06:24:20.086Z,-1.90
2019-01-24T06:34:23.683Z,-2.00
2019-01-24T06:44:27.274Z,-2.00
2019-01-24T06:54:30.917Z,-1.90
2019-01-24T07:04:34.514Z,-2.00
2019-01-24T07:14:38.113Z,-2.00
2019-01-24T07:24:41.836Z,-2.00
2019-01-24T07:34:45.419Z,-1.90
2019-01-24T07:44:49.009Z,-1.80
2019-01-24T07:54:52.618Z,-1.70
2019-01-24T08:04:56.207Z,-1.60
2019-01-24T08:14:59.810Z,-1.80
2019-01-24T08:25:03.444Z,-1.70
2019-01-24T08:35:07.192Z,-1.70
2019-01-24T08:45:11.205Z,-1.50
2019-01-24T08:55:21.943Z,-1.40
2019-01-24T09:05:25.534Z,-1.40
2019-01-24T09:15:29.314Z,-1.40
2019-01-24T09:25:33.406Z,-1.40
2019-01-24T09:35:37.018Z,-1.50
2019-01-24T09:45:40.631Z,-1.50
2019-01-24T09:55:44.237Z,-1.40
2019-01-24T10:05:47.835Z,-1.30
2019-01-24T10:15:51.438Z,-1.30
2019-01-24T10:25:55.039Z,-1.30
2019-01-24T10:35:58.662Z,-1.20
2019-01-24T10:46:02.256Z,-1.10
2019-01-24T10:56:05.916Z,-1.00
2019-01-24T11:06:09.502Z,-1.00
2019-01-24T11:16:13.099Z,-1.00
2019-01-24T11:26:16.694Z,-1.00
2019-01-24T11:36:20.280Z,-1.00
2019-01-24T11:46:23.863Z,-0.80
2019-01-24T11:56:27.469Z,-0.70
2019-01-24T12:06:31.070Z,-0.70
2019-01-24T12:16:34.667Z,-0.60
2019-01-24T12:26:38.258Z,-0.70
2019-01-24T12:36:41.849Z,-0.40
2019-01-24T12:46:45.422Z,-0.30
2019-01-24T12:56:49.003Z,-0.20
2019-01-24T13:06:52.612Z,-0.20
2019-01-24T13:16:56.190Z,-0.10
2019-01-24T13:26:59.777Z,-0.20
2019-01-24T13:37:03.364Z,-0.10
2019-01-24T13:47:06.959Z,-0.20
2019-01-24T13:57:10.537Z,-0.20
2019-01-24T14:07:14.180Z,-0.30
2019-01-24T14:17:17.782Z,-0.50
2019-01-24T14:27:21.811Z,-0.50
2019-01-24T14:37:26.567Z,-0.40
2019-01-24T14:47:30.158Z,-0.50
2019-01-24T14:57:33.857Z,-0.60
2019-01-24T15:07:37.591Z,-0.50
2019-01-24T15:17:41.178Z,-0.50
2019-01-24T15:27:44.766Z,-0.50
2019-01-24T15:37:54.386Z,-0.40
2019-01-24T15:47:53.774Z,-0.40
2019-01-24T15:57:57.418Z,-0.40
2019-01-24T16:08:01.786Z,-0.40
2019-01-24T16:18:08.278Z,-0.50
2019-01-24T16:28:12.873Z,-0.50
2019-01-24T16:38:16.458Z,-0.50
2019-01-24T16:48:20.046Z,-0.50
2019-01-24T16:58:23.641Z,-0.50
2019-01-24T17:08:27.242Z,-0.50
2019-01-24T17:18:30.873Z,-0.50
2019-01-24T17:28:40.530Z,-0.50
2019-01-24T17:38:44.114Z,-0.60
2019-01-24T17:48:48.758Z,-0.60
2019-01-24T17:58:53.426Z,-0.60
2019-01-24T18:08:57.017Z,-0.60
2019-01-24T18:19:00.630Z,-0.60
2019-01-24T18:29:04.262Z,-0.60
2019-01-24T18:39:10.158Z,-0.70
2019-01-24T18:49:13.750Z,-0.60
2019-01-24T18:59:19.445Z,-0.50
2019-01-24T19:09:25.130Z,-0.50
2019-01-24T19:19:28.757Z,-0.60
2019-01-24T19:29:32.339Z,-0.50
2019-01-24T19:39:35.951Z,-0.40
2019-01-24T19:49:41.619Z,-0.30
2019-01-24T19:59:45.227Z,-0.40
2019-01-24T20:09:48.814Z,-0.50
2019-01-24T20:19:52.661Z,-0.60
2019-01-24T20:29:56.470Z,-0.50
2019-01-24T20:40:00.050Z,-0.60
2019-01-24T20:50:03.687Z,-0.60
2019-01-24T21:00:13.726Z,-0.50
2019-01-24T21:10:19.428Z,-0.50
2019-01-24T21:20:24.806Z,-0.60
2019-01-24T21:30:35.591Z,-0.50
2019-01-24T21:40:39.202Z,-0.40
2019-01-24T21:50:42.870Z,-0.50
2019-01-24T22:00:46.542Z,-0.40
2019-01-24T22:10:50.143Z,-0.40
2019-01-24T22:20:55.748Z,-0.40
2019-01-24T22:31:00.335Z,-0.50
2019-01-24T22:41:03.926Z,-0.60
2019-01-24T22:51:07.550Z,-0.50
2019-01-24T23:01:32.466Z,-0.50
2019-01-24T23:11:36.152Z,-0.50
2019-01-24T23:21:39.726Z,-0.50
2019-01-24T23:31:43.333Z,-0.40
2019-01-24T23:41:46.925Z,-0.40
2019-01-24T23:51:50.502Z,-0.40
